createdAt,value
2018-03-29T00:02:04.013Z,12.97
2018-03-29T00:04:31.928Z,12.50
2018-03-29T00:06:59.430Z,13.97
2018-03-29T00:09:26.899Z,13.13
2018-03-29T00:11:54.400Z,13.57
2018-03-29T00:14:21.935Z,13.90
2018-03-29T00:16:50.180Z,12.87
2018-03-29T00:19:17.662Z,14.90
2018-03-29T00:21:46.932Z,15.53
2018-03-29T00:24:14.388Z,15.63
2018-03-29T00:26:41.884Z,16.83
2018-03-29T00:29:10.108Z,15.00
2018-03-29T00:31:37.602Z,17.20
2018-03-29T00:34:05.084Z,16.27
2018-03-29T00:36:33.327Z,17.33
2018-03-29T00:39:00.819Z,16.33
2018-03-29T00:41:29.066Z,16.10
2018-03-29T00:43:56.538Z,15.93
2018-03-29T00:46:24.025Z,15.57
2018-03-29T00:48:52.262Z,15.43
2018-03-29T00:51:19.740Z,15.93
2018-03-29T00:53:47.223Z,17.17
2018-03-29T00:56:14.689Z,16.73
2018-03-29T00:58:42.200Z,16.00
2018-03-29T01:01:09.750Z,16.27
2018-03-29T01:03:37.233Z,15.90
2018-03-29T01:06:05.474Z,16.77
2018-03-29T01:08:32.955Z,14.90
2018-03-29T01:11:00.427Z,16.73
2018-03-29T01:13:28.697Z,14.10
2018-03-29T01:15:56.189Z,15.40
2018-03-29T01:18:23.661Z,14.40
2018-03-29T01:20:51.174Z,15.63
2018-03-29T01:23:18.670Z,15.67
2018-03-29T01:25:46.151Z,15.20
2018-03-29T01:28:13.602Z,15.83
2018-03-29T01:30:41.099Z,19.03
2018-03-29T01:33:09.338Z,16.93
2018-03-29T01:35:36.840Z,18.30
2018-03-29T01:38:04.309Z,15.70
2018-03-29T01:40:32.566Z,16.23
2018-03-29T01:43:00.032Z,18.70
2018-03-29T01:45:27.515Z,16.60
2018-03-29T01:47:55.762Z,19.50
2018-03-29T01:50:23.256Z,15.63
2018-03-29T01:52:50.724Z,17.13
2018-03-29T01:55:18.213Z,17.40
2018-03-29T01:57:45.684Z,17.10
2018-03-29T02:00:13.158Z,17.43
2018-03-29T02:02:40.610Z,15.70
2018-03-29T02:05:08.086Z,18.43
2018-03-29T02:07:36.349Z,16.43
2018-03-29T02:10:03.837Z,17.83
2018-03-29T02:12:32.087Z,15.50
2018-03-29T02:14:59.562Z,16.20
2018-03-29T02:17:27.826Z,16.73
2018-03-29T02:19:55.330Z,17.07
2018-03-29T02:22:22.805Z,17.50
2018-03-29T02:24:50.306Z,18.93
2018-03-29T02:27:17.814Z,16.93
2018-03-29T02:29:45.278Z,17.80
2018-03-29T02:32:12.771Z,17.27
2018-03-29T02:34:40.250Z,16.20
2018-03-29T02:37:08.494Z,18.53
2018-03-29T02:39:35.956Z,18.47
2018-03-29T02:42:03.452Z,18.93
2018-03-29T02:44:31.692Z,19.37
2018-03-29T02:46:59.205Z,18.13
2018-03-29T02:49:26.661Z,19.43
2018-03-29T02:51:54.141Z,19.77
2018-03-29T02:54:22.125Z,19.57
2018-03-29T02:56:49.602Z,18.60
2018-03-29T02:59:17.078Z,20.27
2018-03-29T03:01:45.317Z,21.07
2018-03-29T03:04:12.832Z,21.80
2018-03-29T03:06:40.261Z,20.30
2018-03-29T03:09:08.535Z,20.73
2018-03-29T03:11:35.999Z,22.33
2018-03-29T03:14:04.263Z,19.87
2018-03-29T03:16:31.796Z,20.53
2018-03-29T03:18:59.989Z,21.83
2018-03-29T03:21:27.462Z,23.17
2018-03-29T03:23:54.940Z,21.60
2018-03-29T03:26:23.188Z,23.30
2018-03-29T03:28:50.686Z,23.00
2018-03-29T03:31:18.924Z,24.30
2018-03-29T03:33:46.412Z,22.30
2018-03-29T03:36:14.672Z,22.80
2018-03-29T03:38:42.984Z,21.30
2018-03-29T03:41:10.464Z,23.17
2018-03-29T03:43:38.002Z,22.63
2018-03-29T03:46:05.511Z,22.30
2018-03-29T03:48:32.981Z,25.00
2018-03-29T03:51:00.493Z,23.87
2018-03-29T03:53:28.009Z,24.87
2018-03-29T03:55:56.259Z,25.07
2018-03-29T03:58:23.790Z,26.27
2018-03-29T04:00:51.259Z,27.53
2018-03-29T04:03:18.727Z,25.77
2018-03-29T04:05:46.198Z,27.37
2018-03-29T04:08:13.677Z,30.13
2018-03-29T04:10:41.922Z,28.17
2018-03-29T04:13:09.381Z,28.27
2018-03-29T04:15:36.853Z,29.53
2018-03-29T04:18:04.342Z,28.53
2018-03-29T04:20:32.576Z,26.87
2018-03-29T04:23:00.051Z,25.60
2018-03-29T04:25:27.531Z,30.17
2018-03-29T04:27:55.757Z,30.47
2018-03-29T04:30:23.358Z,28.70
2018-03-29T04:32:50.828Z,27.03
2018-03-29T04:35:19.079Z,31.50
2018-03-29T04:37:46.566Z,26.40
2018-03-29T04:40:14.043Z,30.10
2018-03-29T04:42:41.536Z,29.57
2018-03-29T04:45:09.016Z,29.67
2018-03-29T04:47:36.502Z,26.77
2018-03-29T04:50:03.992Z,28.50
2018-03-29T04:52:31.478Z,31.93
2018-03-29T04:54:58.970Z,29.27
2018-03-29T04:57:27.208Z,28.67
2018-03-29T04:59:54.699Z,29.27
2018-03-29T05:02:23.028Z,27.27
2018-03-29T05:04:50.500Z,30.67
2018-03-29T05:07:17.976Z,28.50
2018-03-29T05:09:45.453Z,28.70
2018-03-29T05:12:13.680Z,31.00
2018-03-29T05:14:41.164Z,27.77
2018-03-29T05:17:08.690Z,28.07
2018-03-29T05:19:36.161Z,29.93
2018-03-29T05:22:03.630Z,27.43
2018-03-29T05:24:31.127Z,29.57
2018-03-29T05:26:59.476Z,27.53
2018-03-29T05:29:26.955Z,30.60
2018-03-29T05:31:54.441Z,25.73
2018-03-29T05:34:21.936Z,26.20
2018-03-29T05:36:49.402Z,23.20
2018-03-29T05:39:16.893Z,27.37
2018-03-29T05:41:45.129Z,25.80
2018-03-29T05:44:12.658Z,24.63
2018-03-29T05:46:40.095Z,25.20
2018-03-29T05:49:08.334Z,25.67
2018-03-29T05:51:35.923Z,24.10
2018-03-29T05:54:04.188Z,24.37
2018-03-29T05:56:31.655Z,25.60
2018-03-29T05:58:59.887Z,23.40
2018-03-29T06:01:27.379Z,25.07
2018-03-29T06:03:54.847Z,24.30
2018-03-29T06:06:22.313Z,25.07
2018-03-29T06:08:50.593Z,24.83
2018-03-29T06:11:18.834Z,21.80
2018-03-29T06:13:46.310Z,23.90
2018-03-29T06:16:16.354Z,23.30
2018-03-29T06:18:43.846Z,23.63
2018-03-29T06:21:11.348Z,21.37
2018-03-29T06:23:39.590Z,22.00
2018-03-29T06:26:07.062Z,20.83
2018-03-29T06:28:34.559Z,21.53
2018-03-29T06:31:02.790Z,21.37
2018-03-29T06:33:30.283Z,22.13
2018-03-29T06:35:57.746Z,18.87
2018-03-29T06:38:26.031Z,21.93
2018-03-29T06:40:54.259Z,21.17
2018-03-29T06:43:21.755Z,19.17
2018-03-29T06:45:49.989Z,18.60
2018-03-29T06:48:17.463Z,19.57
2018-03-29T06:50:44.920Z,18.33
2018-03-29T06:53:12.447Z,20.10
2018-03-29T06:55:39.926Z,18.43
2018-03-29T06:58:07.455Z,18.37
2018-03-29T07:00:34.929Z,16.23
2018-03-29T07:03:02.428Z,17.00
2018-03-29T07:05:29.886Z,17.80
2018-03-29T07:07:57.377Z,16.67
2018-03-29T07:10:25.752Z,18.53
2018-03-29T07:12:54.035Z,18.60
2018-03-29T07:15:21.507Z,17.53
2018-03-29T07:17:48.990Z,14.70
2018-03-29T07:20:16.443Z,17.30
2018-03-29T07:22:43.931Z,15.83
2018-03-29T07:25:11.426Z,15.53
2018-03-29T07:27:39.696Z,13.37
2018-03-29T07:30:08.100Z,12.80
2018-03-29T07:32:35.573Z,11.23
2018-03-29T07:35:03.046Z,10.70
2018-03-29T07:37:30.520Z,11.13
2018-03-29T07:39:57.989Z,8.47
2018-03-29T07:42:25.472Z,10.13
2018-03-29T07:44:53.723Z,9.80
2018-03-29T07:47:21.197Z,10.17
2018-03-29T07:49:49.512Z,11.17
2018-03-29T07:52:16.975Z,10.37
2018-03-29T07:54:44.516Z,9.47
2018-03-29T07:57:11.982Z,10.40
2018-03-29T07:59:39.570Z,10.07
2018-03-29T08:02:07.128Z,9.37
2018-03-29T08:04:34.611Z,11.50
2018-03-29T08:07:02.086Z,10.77
2018-03-29T08:09:30.405Z,11.47
2018-03-29T08:11:57.920Z,11.07
2018-03-29T08:14:26.150Z,10.90
2018-03-29T08:16:54.290Z,9.90
2018-03-29T08:19:23.239Z,10.97
2018-03-29T08:21:50.724Z,11.97
2018-03-29T08:24:18.975Z,11.10
2018-03-29T08:26:46.453Z,11.47
2018-03-29T08:29:13.932Z,11.50
2018-03-29T08:31:42.218Z,11.50
2018-03-29T08:34:09.834Z,10.40
2018-03-29T08:36:37.334Z,10.20
2018-03-29T08:39:05.690Z,10.17
2018-03-29T08:41:33.927Z,10.50
2018-03-29T08:44:01.392Z,8.77
2018-03-29T08:46:28.882Z,9.03
2018-03-29T08:48:57.154Z,7.87
2018-03-29T08:51:24.620Z,7.40
2018-03-29T08:53:52.140Z,7.90
2018-03-29T08:56:24.534Z,7.20
2018-03-29T08:58:52.008Z,7.40
2018-03-29T09:01:19.501Z,6.80
2018-03-29T09:03:46.987Z,7.40
2018-03-29T09:06:14.470Z,7.53
2018-03-29T09:08:41.953Z,7.60
2018-03-29T09:11:10.247Z,8.33
2018-03-29T09:13:37.722Z,6.90
2018-03-29T09:16:05.209Z,6.90
2018-03-29T09:18:32.692Z,7.20
2018-03-29T09:21:00.174Z,7.10
2018-03-29T09:23:28.412Z,7.37
2018-03-29T09:25:59.082Z,7.87
2018-03-29T09:28:27.422Z,7.87
2018-03-29T09:30:54.912Z,7.47
2018-03-29T09:33:23.145Z,8.73
2018-03-29T09:35:50.651Z,7.07
2018-03-29T09:38:18.118Z,7.40
2018-03-29T09:40:45.658Z,8.20
2018-03-29T09:43:13.889Z,7.10
2018-03-29T09:45:41.362Z,7.20
2018-03-29T09:48:09.601Z,7.40
2018-03-29T09:50:37.097Z,7.00
2018-03-29T09:53:04.595Z,8.80
2018-03-29T09:55:32.859Z,7.50
2018-03-29T09:58:01.111Z,7.23
2018-03-29T10:00:34.286Z,7.10
2018-03-29T10:03:07.594Z,6.90
2018-03-29T10:05:38.302Z,7.43
2018-03-29T10:08:05.878Z,7.67
2018-03-29T10:10:33.433Z,9.80
2018-03-29T10:13:01.095Z,6.70
2018-03-29T10:15:28.551Z,6.90
2018-03-29T10:17:56.050Z,7.53
2018-03-29T10:20:23.510Z,7.03
2018-03-29T10:22:50.982Z,6.77
2018-03-29T10:25:18.495Z,6.63
2018-03-29T10:27:52.166Z,6.60
2018-03-29T10:30:19.646Z,7.73
2018-03-29T10:32:47.164Z,7.30
2018-03-29T10:35:14.644Z,6.80
2018-03-29T10:37:42.136Z,6.07
2018-03-29T10:40:09.611Z,7.07
2018-03-29T10:42:37.093Z,5.70
2018-03-29T10:45:04.553Z,5.50
2018-03-29T10:47:32.813Z,5.87
2018-03-29T10:50:00.295Z,6.53
2018-03-29T10:52:28.585Z,5.70
2018-03-29T10:54:56.819Z,5.83
2018-03-29T10:57:24.381Z,4.60
2018-03-29T10:59:51.850Z,5.20
2018-03-29T11:02:19.366Z,5.07
2018-03-29T11:04:46.887Z,4.50
2018-03-29T11:07:15.123Z,3.67
2018-03-29T11:09:42.644Z,4.90
2018-03-29T11:12:10.137Z,4.30
2018-03-29T11:14:37.623Z,4.63
2018-03-29T11:17:05.073Z,4.17
2018-03-29T11:19:32.656Z,4.00
2018-03-29T11:22:00.891Z,4.00
2018-03-29T11:24:28.400Z,4.80
2018-03-29T11:26:55.900Z,3.97
2018-03-29T11:29:23.366Z,4.17
2018-03-29T11:31:50.870Z,4.20
2018-03-29T11:34:19.112Z,4.80
2018-03-29T11:36:46.635Z,4.10
2018-03-29T11:39:14.251Z,5.00
2018-03-29T11:41:41.736Z,3.57
2018-03-29T11:44:10.011Z,4.50
2018-03-29T11:46:38.545Z,4.50
2018-03-29T11:49:06.679Z,5.07
2018-03-29T11:51:34.183Z,3.40
2018-03-29T11:54:01.693Z,3.53
2018-03-29T11:56:29.186Z,4.10
2018-03-29T11:58:56.699Z,4.43
2018-03-29T12:01:24.978Z,3.70
2018-03-29T12:03:53.229Z,3.77
2018-03-29T12:06:20.724Z,4.40
2018-03-29T12:08:48.233Z,3.00
2018-03-29T12:11:15.729Z,3.10
2018-03-29T12:13:44.011Z,3.10
2018-03-29T12:16:11.535Z,3.13
2018-03-29T12:18:39.058Z,3.17
2018-03-29T12:21:06.555Z,2.60
2018-03-29T12:23:34.123Z,3.50
2018-03-29T12:26:01.611Z,3.00
2018-03-29T12:28:29.160Z,10.60
2018-03-29T12:30:57.439Z,2.93
2018-03-29T12:33:24.951Z,3.70
2018-03-29T12:35:52.433Z,3.93
2018-03-29T12:38:19.911Z,3.77
2018-03-29T12:40:47.457Z,3.57
2018-03-29T12:43:14.929Z,3.47
2018-03-29T12:45:43.475Z,3.73
2018-03-29T12:48:11.071Z,4.00
2018-03-29T12:50:38.579Z,4.00
2018-03-29T12:53:06.084Z,4.17
2018-03-29T12:55:40.222Z,3.83
2018-03-29T12:58:10.540Z,4.47
2018-03-29T13:00:38.870Z,2.90
2018-03-29T13:03:06.379Z,3.20
2018-03-29T13:05:33.882Z,2.50
2018-03-29T13:08:01.336Z,3.23
2018-03-29T13:10:28.806Z,4.03
2018-03-29T13:12:56.335Z,3.07
2018-03-29T13:15:23.823Z,3.60
2018-03-29T13:17:51.390Z,3.90
2018-03-29T13:20:19.060Z,3.23
2018-03-29T13:22:47.467Z,3.67
2018-03-29T13:25:15.791Z,3.70
2018-03-29T13:27:44.105Z,3.10
2018-03-29T13:30:12.195Z,4.00
2018-03-29T13:32:39.718Z,4.23
2018-03-29T13:35:07.802Z,4.57
2018-03-29T13:37:35.319Z,3.43
2018-03-29T13:40:02.938Z,3.57
2018-03-29T13:42:30.469Z,3.37
2018-03-29T13:44:57.953Z,2.70
2018-03-29T13:47:25.423Z,3.00
2018-03-29T13:49:54.244Z,3.20
2018-03-29T13:52:21.774Z,3.10
2018-03-29T13:54:49.336Z,3.20
2018-03-29T13:57:16.885Z,3.47
2018-03-29T13:59:44.409Z,3.50
2018-03-29T14:02:11.900Z,3.10
2018-03-29T14:04:39.448Z,3.53
2018-03-29T14:07:06.959Z,3.00
2018-03-29T14:09:34.538Z,3.40
2018-03-29T14:12:02.076Z,2.70
2018-03-29T14:14:29.562Z,3.03
2018-03-29T14:16:57.099Z,3.30
2018-03-29T14:19:24.689Z,2.83
2018-03-29T14:21:52.400Z,2.80
2018-03-29T14:24:20.752Z,2.97
2018-03-29T14:26:48.292Z,2.77
2018-03-29T14:29:15.784Z,3.30
2018-03-29T14:31:44.074Z,3.17
2018-03-29T14:34:11.708Z,3.70
2018-03-29T14:36:39.747Z,3.23
2018-03-29T14:39:07.308Z,2.80
2018-03-29T14:41:35.620Z,3.63
2018-03-29T14:44:03.111Z,2.50
2018-03-29T14:46:31.377Z,2.27
2018-03-29T14:48:58.862Z,2.97
2018-03-29T14:51:26.337Z,3.30
2018-03-29T14:53:53.836Z,2.23
2018-03-29T14:56:21.320Z,2.60
2018-03-29T14:58:49.615Z,1.60
2018-03-29T15:01:17.129Z,2.20
2018-03-29T15:03:45.043Z,3.33
2018-03-29T15:06:12.527Z,2.50
2018-03-29T15:08:40.080Z,2.57
2018-03-29T15:11:07.566Z,3.17
2018-03-29T15:13:35.118Z,2.03
2018-03-29T15:16:02.564Z,3.53
2018-03-29T15:18:30.087Z,2.37
2018-03-29T15:20:57.606Z,2.00
2018-03-29T15:23:25.100Z,2.43
2018-03-29T15:25:52.584Z,2.03
2018-03-29T15:28:20.063Z,2.57
2018-03-29T15:30:47.570Z,2.43
2018-03-29T15:33:15.817Z,3.30
2018-03-29T15:35:43.507Z,2.30
2018-03-29T15:38:11.737Z,5.27
2018-03-29T15:40:39.234Z,6.67
2018-03-29T15:43:06.744Z,3.60
2018-03-29T15:45:34.308Z,3.00
2018-03-29T15:48:01.871Z,2.73
2018-03-29T15:50:29.432Z,3.80
2018-03-29T15:52:56.957Z,2.73
2018-03-29T15:55:24.451Z,3.20
2018-03-29T15:57:51.939Z,3.43
2018-03-29T16:00:19.565Z,2.30
2018-03-29T16:02:47.056Z,2.13
2018-03-29T16:05:14.615Z,2.10
2018-03-29T16:07:42.102Z,2.10
2018-03-29T16:10:10.450Z,1.93
2018-03-29T16:12:38.261Z,2.00
2018-03-29T16:15:06.537Z,2.33
2018-03-29T16:17:34.366Z,2.40
2018-03-29T16:20:01.890Z,2.60
2018-03-29T16:22:30.208Z,2.53
2018-03-29T16:24:58.462Z,2.97
2018-03-29T16:27:25.962Z,1.97
2018-03-29T16:29:55.469Z,2.60
2018-03-29T16:32:23.572Z,2.57
2018-03-29T16:34:51.068Z,2.90
2018-03-29T16:37:18.558Z,2.37
2018-03-29T16:39:46.038Z,2.07
2018-03-29T16:42:13.549Z,2.43
2018-03-29T16:44:41.158Z,2.20
2018-03-29T16:47:09.407Z,1.80
2018-03-29T16:49:36.909Z,2.53
2018-03-29T16:52:04.399Z,1.90
2018-03-29T16:54:31.895Z,2.20
2018-03-29T16:57:00.131Z,2.80
2018-03-29T16:59:27.627Z,2.23
2018-03-29T17:01:55.126Z,2.10
2018-03-29T17:04:22.648Z,2.53
2018-03-29T17:06:50.152Z,3.13
2018-03-29T17:09:17.827Z,2.23
2018-03-29T17:11:45.336Z,2.63
2018-03-29T17:14:13.563Z,2.20
2018-03-29T17:16:41.066Z,2.17
2018-03-29T17:19:09.328Z,2.17
2018-03-29T17:21:36.874Z,3.27
2018-03-29T17:24:04.391Z,3.63
2018-03-29T17:26:31.870Z,3.70
2018-03-29T17:28:59.329Z,2.73
2018-03-29T17:31:26.838Z,2.57
2018-03-29T17:33:55.078Z,3.80
2018-03-29T17:36:22.570Z,4.40
2018-03-29T17:38:50.802Z,3.93
2018-03-29T17:41:18.353Z,4.27
2018-03-29T17:43:46.559Z,5.60
2018-03-29T17:46:14.049Z,4.97
2018-03-29T17:48:42.322Z,4.60
2018-03-29T17:51:10.581Z,5.00
2018-03-29T17:53:38.037Z,3.60
2018-03-29T17:56:06.307Z,3.53
2018-03-29T17:58:33.779Z,4.50
2018-03-29T18:01:01.319Z,5.73
2018-03-29T18:03:28.876Z,7.80
2018-03-29T18:05:56.432Z,11.83
2018-03-29T18:08:23.907Z,9.17
2018-03-29T18:10:51.384Z,6.47
2018-03-29T18:13:18.980Z,4.90
2018-03-29T18:15:46.545Z,4.00
2018-03-29T18:18:14.284Z,5.80
2018-03-29T18:20:42.540Z,6.30
2018-03-29T18:23:10.819Z,8.33
2018-03-29T18:25:39.137Z,8.60
2018-03-29T18:28:06.673Z,8.03
2018-03-29T18:30:34.917Z,9.17
2018-03-29T18:33:02.507Z,5.23
2018-03-29T18:35:30.811Z,5.70
2018-03-29T18:37:58.318Z,5.63
2018-03-29T18:40:25.853Z,7.27
2018-03-29T18:42:53.381Z,6.30
2018-03-29T18:45:20.930Z,6.30
2018-03-29T18:47:48.469Z,6.10
2018-03-29T18:50:16.184Z,5.70
2018-03-29T18:52:43.649Z,7.00
2018-03-29T18:55:11.190Z,4.53
2018-03-29T18:57:38.668Z,4.10
2018-03-29T19:00:06.234Z,5.63
2018-03-29T19:02:33.726Z,4.57
2018-03-29T19:05:01.245Z,4.63
2018-03-29T19:07:28.699Z,3.80
2018-03-29T19:09:56.241Z,5.40
2018-03-29T19:12:23.717Z,4.43
2018-03-29T19:14:51.371Z,4.57
2018-03-29T19:17:18.889Z,4.20
2018-03-29T19:19:47.163Z,4.40
2018-03-29T19:22:15.479Z,4.50
2018-03-29T19:24:43.077Z,4.00
2018-03-29T19:27:10.659Z,4.70
2018-03-29T19:29:38.208Z,4.00
2018-03-29T19:32:11.154Z,4.13
2018-03-29T19:34:40.133Z,4.23
2018-03-29T19:37:07.704Z,5.20
2018-03-29T19:39:35.251Z,3.97
2018-03-29T19:42:02.743Z,4.87
2018-03-29T19:44:30.441Z,5.07
2018-03-29T19:46:58.178Z,6.97
2018-03-29T19:49:26.707Z,5.70
2018-03-29T19:51:54.989Z,5.70
2018-03-29T19:54:22.519Z,4.33
2018-03-29T19:56:50.045Z,6.13
2018-03-29T19:59:17.691Z,4.60
2018-03-29T20:01:45.182Z,5.30
2018-03-29T20:04:12.675Z,4.50
2018-03-29T20:06:40.749Z,5.77
2018-03-29T20:09:08.224Z,5.10
2018-03-29T20:11:36.610Z,5.23
2018-03-29T20:14:04.120Z,6.77
2018-03-29T20:16:31.617Z,5.97
2018-03-29T20:18:59.948Z,5.80
2018-03-29T20:21:28.233Z,6.53
2018-03-29T20:23:55.811Z,6.83
2018-03-29T20:26:23.272Z,6.33
2018-03-29T20:28:50.848Z,6.87
2018-03-29T20:31:18.287Z,7.27
2018-03-29T20:33:45.813Z,6.13
2018-03-29T20:36:13.287Z,5.57
2018-03-29T20:38:40.769Z,3.93
2018-03-29T20:41:08.277Z,5.57
2018-03-29T20:43:35.785Z,3.67
2018-03-29T20:46:03.270Z,4.10
2018-03-29T20:48:30.798Z,4.17
2018-03-29T20:50:58.355Z,4.20
2018-03-29T20:53:25.852Z,4.27
2018-03-29T20:55:53.382Z,3.90
2018-03-29T20:58:20.821Z,4.00
2018-03-29T21:00:48.290Z,3.60
2018-03-29T21:03:15.785Z,4.33
2018-03-29T21:05:43.528Z,4.90
2018-03-29T21:08:11.779Z,4.10
2018-03-29T21:10:39.260Z,3.90
2018-03-29T21:13:07.533Z,3.70
2018-03-29T21:15:35.365Z,3.83
2018-03-29T21:18:02.874Z,3.90
2018-03-29T21:20:31.261Z,4.73
2018-03-29T21:22:59.506Z,5.10
2018-03-29T21:25:26.989Z,6.10
2018-03-29T21:27:55.227Z,5.83
2018-03-29T21:30:22.699Z,5.77
2018-03-29T21:32:50.185Z,6.10
2018-03-29T21:35:18.504Z,5.53
2018-03-29T21:37:46.018Z,5.70
2018-03-29T21:40:14.269Z,5.33
2018-03-29T21:42:41.746Z,5.70
2018-03-29T21:45:09.233Z,6.07
2018-03-29T21:47:36.781Z,6.07
2018-03-29T21:50:04.217Z,7.70
2018-03-29T21:52:31.716Z,6.70
2018-03-29T21:54:59.231Z,8.20
2018-03-29T21:57:27.139Z,8.10
2018-03-29T21:59:54.634Z,5.27
2018-03-29T22:02:22.151Z,6.00
2018-03-29T22:04:49.634Z,5.00
2018-03-29T22:07:17.132Z,5.73
2018-03-29T22:09:44.606Z,5.83
2018-03-29T22:12:12.883Z,4.80
2018-03-29T22:14:41.177Z,6.63
2018-03-29T22:17:09.481Z,5.43
2018-03-29T22:19:37.731Z,6.80
2018-03-29T22:22:05.255Z,5.70
2018-03-29T22:24:32.719Z,5.77
2018-03-29T22:27:00.187Z,6.17
2018-03-29T22:29:28.454Z,5.93
2018-03-29T22:31:55.945Z,7.03
2018-03-29T22:34:24.235Z,6.10
2018-03-29T22:36:51.742Z,6.83
2018-03-29T22:39:19.211Z,6.40
2018-03-29T22:41:46.719Z,6.13
2018-03-29T22:44:14.193Z,6.10
2018-03-29T22:46:41.697Z,7.00
2018-03-29T22:49:09.731Z,7.43
2018-03-29T22:51:38.218Z,5.90
2018-03-29T22:54:05.815Z,6.53
2018-03-29T22:56:34.165Z,5.90
2018-03-29T22:59:01.628Z,7.20
2018-03-29T23:01:30.045Z,6.13
2018-03-29T23:03:57.457Z,5.53
2018-03-29T23:06:25.908Z,6.23
2018-03-29T23:08:53.384Z,6.50
2018-03-29T23:11:21.188Z,6.77
2018-03-29T23:13:49.431Z,6.07
2018-03-29T23:16:17.528Z,7.27
2018-03-29T23:18:45.826Z,7.10
2018-03-29T23:21:13.600Z,6.20
2018-03-29T23:23:41.243Z,6.10
2018-03-29T23:26:09.497Z,5.77
2018-03-29T23:28:36.987Z,6.60
2018-03-29T23:31:04.502Z,6.37
2018-03-29T23:33:31.972Z,6.00
2018-03-29T23:35:59.435Z,6.07
2018-03-29T23:38:26.920Z,7.07
2018-03-29T23:40:55.184Z,7.10
2018-03-29T23:43:23.521Z,7.77
2018-03-29T23:45:50.995Z,7.60
2018-03-29T23:48:18.491Z,6.80
2018-03-29T23:50:46.717Z,6.93
2018-03-29T23:53:14.207Z,7.70
2018-03-29T23:55:41.673Z,8.60
2018-03-29T23:58:16.842Z,7.53
